<?xml version="1.0" encoding="UTF-8" standalone="no" ?>
<gpx xmlns="http://www.topografix.com/GPX/1/1" xmlns:xsi="http://www.w3.org/2001/XMLSchema-instance" xsi:schemaLocation="http://www.topografix.com/GPX/1/1 http://www.topografix.com/GPX/1/1/gpx.xsd" version="1.1" creator="VisuGPX - https://www.visugpx.com">
  <metadata>
    <name>Okabe, 1456m, depuis Sourzay</name>
  </metadata>
  <trk>
    <name><![CDATA[Okabe, 1456m, depuis Sourzay]]></name>
    <trkseg>
      <trkpt lat="43.04846" lon="-1.09868">
        <ele>1142</ele>
        <time>2019-09-29T10:21:19+02:00</time>
      </trkpt>
      <trkpt lat="43.04834" lon="-1.09894">
        <ele>1142</ele>
        <time>2019-09-29T10:22:11+02:00</time>
      </trkpt>
      <trkpt lat="43.04825" lon="-1.09924">
        <ele>1147</ele>
        <time>2019-09-29T10:22:58+02:00</time>
      </trkpt>
      <trkpt lat="43.04816" lon="-1.09953">
        <ele>1151</ele>
        <time>2019-09-29T10:23:45+02:00</time>
      </trkpt>
      <trkpt lat="43.04805" lon="-1.0998">
        <ele>1153</ele>
        <time>2019-09-29T10:24:17+02:00</time>
      </trkpt>
      <trkpt lat="43.04808" lon="-1.10011">
        <ele>1159</ele>
        <time>2019-09-29T10:25:18+02:00</time>
      </trkpt>
      <trkpt lat="43.04821" lon="-1.10036">
        <ele>1163</ele>
        <time>2019-09-29T10:25:42+02:00</time>
      </trkpt>
      <trkpt lat="43.04826" lon="-1.10067">
        <ele>1167</ele>
        <time>2019-09-29T10:26:46+02:00</time>
      </trkpt>
      <trkpt lat="43.04822" lon="-1.10098">
        <ele>1171</ele>
        <time>2019-09-29T10:27:34+02:00</time>
      </trkpt>
      <trkpt lat="43.04812" lon="-1.10126">
        <ele>1176</ele>
        <time>2019-09-29T10:28:41+02:00</time>
      </trkpt>
      <trkpt lat="43.04795" lon="-1.10147">
        <ele>1182</ele>
        <time>2019-09-29T10:29:17+02:00</time>
      </trkpt>
      <trkpt lat="43.04776" lon="-1.10164">
        <ele>1190</ele>
        <time>2019-09-29T10:29:53+02:00</time>
      </trkpt>
      <trkpt lat="43.04755" lon="-1.10177">
        <ele>1195</ele>
        <time>2019-09-29T10:30:48+02:00</time>
      </trkpt>
      <trkpt lat="43.04732" lon="-1.1018">
        <ele>1202</ele>
        <time>2019-09-29T10:31:24+02:00</time>
      </trkpt>
      <trkpt lat="43.04711" lon="-1.10191">
        <ele>1210</ele>
        <time>2019-09-29T10:32:27+02:00</time>
      </trkpt>
      <trkpt lat="43.04688" lon="-1.10194">
        <ele>1216</ele>
        <time>2019-09-29T10:33:30+02:00</time>
      </trkpt>
      <trkpt lat="43.04667" lon="-1.10207">
        <ele>1222</ele>
        <time>2019-09-29T10:35:41+02:00</time>
      </trkpt>
      <trkpt lat="43.04655" lon="-1.10234">
        <ele>1228</ele>
        <time>2019-09-29T10:36:58+02:00</time>
      </trkpt>
      <trkpt lat="43.04638" lon="-1.10255">
        <ele>1234</ele>
        <time>2019-09-29T10:37:42+02:00</time>
      </trkpt>
      <trkpt lat="43.0462" lon="-1.10275">
        <ele>1242</ele>
        <time>2019-09-29T10:39:55+02:00</time>
      </trkpt>
      <trkpt lat="43.04608" lon="-1.10302">
        <ele>1250</ele>
        <time>2019-09-29T10:41:24+02:00</time>
      </trkpt>
      <trkpt lat="43.04596" lon="-1.10328">
        <ele>1259</ele>
        <time>2019-09-29T10:43:06+02:00</time>
      </trkpt>
      <trkpt lat="43.04581" lon="-1.10353">
        <ele>1268</ele>
        <time>2019-09-29T10:44:19+02:00</time>
      </trkpt>
      <trkpt lat="43.04564" lon="-1.10374">
        <ele>1274</ele>
        <time>2019-09-29T10:44:58+02:00</time>
      </trkpt>
      <trkpt lat="43.04549" lon="-1.10398">
        <ele>1279</ele>
        <time>2019-09-29T10:45:46+02:00</time>
      </trkpt>
      <trkpt lat="43.04538" lon="-1.10425">
        <ele>1279</ele>
        <time>2019-09-29T10:46:47+02:00</time>
      </trkpt>
      <trkpt lat="43.04521" lon="-1.10446">
        <ele>1284</ele>
        <time>2019-09-29T10:47:27+02:00</time>
      </trkpt>
      <trkpt lat="43.04507" lon="-1.1047">
        <ele>1292</ele>
        <time>2019-09-29T10:48:01+02:00</time>
      </trkpt>
      <trkpt lat="43.04492" lon="-1.10494">
        <ele>1298</ele>
        <time>2019-09-29T10:48:47+02:00</time>
      </trkpt>
      <trkpt lat="43.04476" lon="-1.10516">
        <ele>1300</ele>
        <time>2019-09-29T10:49:41+02:00</time>
      </trkpt>
      <trkpt lat="43.04462" lon="-1.10542">
        <ele>1300</ele>
        <time>2019-09-29T10:50:32+02:00</time>
      </trkpt>
      <trkpt lat="43.04445" lon="-1.10568">
        <ele>1299</ele>
        <time>2019-09-29T10:51:29+02:00</time>
      </trkpt>
      <trkpt lat="43.0443" lon="-1.10592">
        <ele>1295</ele>
        <time>2019-09-29T10:51:53+02:00</time>
      </trkpt>
      <trkpt lat="43.04415" lon="-1.10616">
        <ele>1293</ele>
        <time>2019-09-29T10:52:17+02:00</time>
      </trkpt>
      <trkpt lat="43.04401" lon="-1.10641">
        <ele>1295</ele>
        <time>2019-09-29T10:52:43+02:00</time>
      </trkpt>
      <trkpt lat="43.04385" lon="-1.10662">
        <ele>1298</ele>
        <time>2019-09-29T10:53:12+02:00</time>
      </trkpt>
      <trkpt lat="43.04366" lon="-1.10682">
        <ele>1301</ele>
        <time>2019-09-29T10:53:42+02:00</time>
      </trkpt>
      <trkpt lat="43.04344" lon="-1.10692">
        <ele>1308</ele>
        <time>2019-09-29T10:55:33+02:00</time>
      </trkpt>
      <trkpt lat="43.04323" lon="-1.10707">
        <ele>1315</ele>
        <time>2019-09-29T10:56:31+02:00</time>
      </trkpt>
      <trkpt lat="43.04311" lon="-1.10733">
        <ele>1323</ele>
        <time>2019-09-29T10:57:56+02:00</time>
      </trkpt>
      <trkpt lat="43.04293" lon="-1.10753">
        <ele>1333</ele>
        <time>2019-09-29T10:59:14+02:00</time>
      </trkpt>
      <trkpt lat="43.0427" lon="-1.10761">
        <ele>1343</ele>
        <time>2019-09-29T11:01:59+02:00</time>
      </trkpt>
      <trkpt lat="43.04275" lon="-1.10792">
        <ele>1348</ele>
        <time>2019-09-29T11:03:13+02:00</time>
      </trkpt>
      <trkpt lat="43.04274" lon="-1.10824">
        <ele>1352</ele>
        <time>2019-09-29T11:03:57+02:00</time>
      </trkpt>
      <trkpt lat="43.04264" lon="-1.10852">
        <ele>1361</ele>
        <time>2019-09-29T11:05:48+02:00</time>
      </trkpt>
      <trkpt lat="43.0424" lon="-1.10856">
        <ele>1371</ele>
        <time>2019-09-29T11:07:19+02:00</time>
      </trkpt>
      <trkpt lat="43.04238" lon="-1.10887">
        <ele>1375</ele>
        <time>2019-09-29T11:07:39+02:00</time>
      </trkpt>
      <trkpt lat="43.04238" lon="-1.10919">
        <ele>1377</ele>
        <time>2019-09-29T11:08:22+02:00</time>
      </trkpt>
      <trkpt lat="43.04228" lon="-1.10947">
        <ele>1379</ele>
        <time>2019-09-29T11:09:13+02:00</time>
      </trkpt>
      <trkpt lat="43.04205" lon="-1.10948">
        <ele>1380</ele>
        <time>2019-09-29T11:09:35+02:00</time>
      </trkpt>
      <trkpt lat="43.04184" lon="-1.10959">
        <ele>1380</ele>
        <time>2019-09-29T11:10:37+02:00</time>
      </trkpt>
      <trkpt lat="43.04161" lon="-1.10957">
        <ele>1380</ele>
        <time>2019-09-29T11:10:58+02:00</time>
      </trkpt>
      <trkpt lat="43.04138" lon="-1.10957">
        <ele>1380</ele>
        <time>2019-09-29T11:11:31+02:00</time>
      </trkpt>
      <trkpt lat="43.04116" lon="-1.10947">
        <ele>1380</ele>
        <time>2019-09-29T11:11:52+02:00</time>
      </trkpt>
      <trkpt lat="43.04093" lon="-1.10944">
        <ele>1380</ele>
        <time>2019-09-29T11:12:25+02:00</time>
      </trkpt>
      <trkpt lat="43.04071" lon="-1.10936">
        <ele>1380</ele>
        <time>2019-09-29T11:12:48+02:00</time>
      </trkpt>
      <trkpt lat="43.04049" lon="-1.10944">
        <ele>1380</ele>
        <time>2019-09-29T11:13:10+02:00</time>
      </trkpt>
      <trkpt lat="43.04026" lon="-1.10948">
        <ele>1380</ele>
        <time>2019-09-29T11:13:33+02:00</time>
      </trkpt>
      <trkpt lat="43.04003" lon="-1.10948">
        <ele>1380</ele>
        <time>2019-09-29T11:14:08+02:00</time>
      </trkpt>
      <trkpt lat="43.03984" lon="-1.1093">
        <ele>1384</ele>
        <time>2019-09-29T11:14:32+02:00</time>
      </trkpt>
      <trkpt lat="43.03963" lon="-1.10917">
        <ele>1389</ele>
        <time>2019-09-29T11:14:58+02:00</time>
      </trkpt>
      <trkpt lat="43.03941" lon="-1.10907">
        <ele>1391</ele>
        <time>2019-09-29T11:15:33+02:00</time>
      </trkpt>
      <trkpt lat="43.03919" lon="-1.10897">
        <ele>1395</ele>
        <time>2019-09-29T11:16:02+02:00</time>
      </trkpt>
      <trkpt lat="43.03896" lon="-1.10889">
        <ele>1397</ele>
        <time>2019-09-29T11:16:28+02:00</time>
      </trkpt>
      <trkpt lat="43.03874" lon="-1.1088">
        <ele>1396</ele>
        <time>2019-09-29T11:16:49+02:00</time>
      </trkpt>
      <trkpt lat="43.03853" lon="-1.10868">
        <ele>1394</ele>
        <time>2019-09-29T11:17:09+02:00</time>
      </trkpt>
      <trkpt lat="43.03832" lon="-1.10858">
        <ele>1394</ele>
        <time>2019-09-29T11:17:30+02:00</time>
      </trkpt>
      <trkpt lat="43.03811" lon="-1.10846">
        <ele>1396</ele>
        <time>2019-09-29T11:17:59+02:00</time>
      </trkpt>
      <trkpt lat="43.03789" lon="-1.10838">
        <ele>1397</ele>
        <time>2019-09-29T11:18:17+02:00</time>
      </trkpt>
      <trkpt lat="43.03767" lon="-1.10828">
        <ele>1398</ele>
        <time>2019-09-29T11:18:42+02:00</time>
      </trkpt>
      <trkpt lat="43.03745" lon="-1.10816">
        <ele>1401</ele>
        <time>2019-09-29T11:19:20+02:00</time>
      </trkpt>
      <trkpt lat="43.03723" lon="-1.10807">
        <ele>1405</ele>
        <time>2019-09-29T11:19:53+02:00</time>
      </trkpt>
      <trkpt lat="43.03701" lon="-1.10807">
        <ele>1408</ele>
        <time>2019-09-29T11:20:27+02:00</time>
      </trkpt>
      <trkpt lat="43.03679" lon="-1.10794">
        <ele>1412</ele>
        <time>2019-09-29T11:20:58+02:00</time>
      </trkpt>
      <trkpt lat="43.03658" lon="-1.10784">
        <ele>1417</ele>
        <time>2019-09-29T11:21:34+02:00</time>
      </trkpt>
      <trkpt lat="43.03635" lon="-1.10778">
        <ele>1422</ele>
        <time>2019-09-29T11:22:13+02:00</time>
      </trkpt>
      <trkpt lat="43.03613" lon="-1.10773">
        <ele>1428</ele>
        <time>2019-09-29T11:23:14+02:00</time>
      </trkpt>
      <trkpt lat="43.03592" lon="-1.10759">
        <ele>1435</ele>
        <time>2019-09-29T11:23:42+02:00</time>
      </trkpt>
      <trkpt lat="43.03569" lon="-1.10754">
        <ele>1439</ele>
        <time>2019-09-29T11:24:27+02:00</time>
      </trkpt>
      <trkpt lat="43.03548" lon="-1.10743">
        <ele>1440</ele>
        <time>2019-09-29T11:24:49+02:00</time>
      </trkpt>
      <trkpt lat="43.03526" lon="-1.10736">
        <ele>1443</ele>
        <time>2019-09-29T11:25:12+02:00</time>
      </trkpt>
      <trkpt lat="43.03502" lon="-1.10733">
        <ele>1447</ele>
        <time>2019-09-29T11:25:40+02:00</time>
      </trkpt>
      <trkpt lat="43.03481" lon="-1.1072">
        <ele>1450</ele>
        <time>2019-09-29T11:26:08+02:00</time>
      </trkpt>
      <trkpt lat="43.03459" lon="-1.10714">
        <ele>1453</ele>
        <time>2019-09-29T11:26:49+02:00</time>
      </trkpt>
      <trkpt lat="43.03437" lon="-1.10725">
        <ele>1454</ele>
        <time>2019-09-29T11:27:10+02:00</time>
      </trkpt>
      <trkpt lat="43.03414" lon="-1.10735">
        <ele>1456</ele>
        <time>2019-09-29T11:27:42+02:00</time>
      </trkpt>
      <trkpt lat="43.03391" lon="-1.10737">
        <ele>1457</ele>
        <time>2019-09-29T11:28:04+02:00</time>
      </trkpt>
      <trkpt lat="43.03369" lon="-1.10745">
        <ele>1458</ele>
        <time>2019-09-29T11:28:30+02:00</time>
      </trkpt>
      <trkpt lat="43.03348" lon="-1.10758">
        <ele>1458</ele>
        <time>2019-09-29T11:29:37+02:00</time>
      </trkpt>
      <trkpt lat="43.03325" lon="-1.10764">
        <ele>1459</ele>
        <time>2019-09-29T11:29:56+02:00</time>
      </trkpt>
      <trkpt lat="43.03302" lon="-1.10758">
        <ele>1460</ele>
        <time>2019-09-29T11:30:16+02:00</time>
      </trkpt>
      <trkpt lat="43.03279" lon="-1.10759">
        <ele>1461</ele>
        <time>2019-09-29T11:30:33+02:00</time>
      </trkpt>
      <trkpt lat="43.03255" lon="-1.1076">
        <ele>1462</ele>
        <time>2019-09-29T11:30:55+02:00</time>
      </trkpt>
      <trkpt lat="43.03243" lon="-1.10734">
        <ele>1463</ele>
        <time>2019-09-29T11:32:13+02:00</time>
      </trkpt>
      <trkpt lat="43.03245" lon="-1.10754">
        <ele>1462</ele>
        <time>2019-09-29T11:37:10+02:00</time>
      </trkpt>
      <trkpt lat="43.03254" lon="-1.10783">
        <ele>1460</ele>
        <time>2019-09-29T11:37:58+02:00</time>
      </trkpt>
      <trkpt lat="43.03258" lon="-1.10789">
        <ele>1459</ele>
        <time>2019-09-29T11:58:32+02:00</time>
      </trkpt>
      <trkpt lat="43.03271" lon="-1.10763">
        <ele>1461</ele>
        <time>2019-09-29T11:58:55+02:00</time>
      </trkpt>
      <trkpt lat="43.03286" lon="-1.1074">
        <ele>1462</ele>
        <time>2019-09-29T11:59:32+02:00</time>
      </trkpt>
      <trkpt lat="43.03299" lon="-1.10714">
        <ele>1462</ele>
        <time>2019-09-29T12:00:05+02:00</time>
      </trkpt>
      <trkpt lat="43.03313" lon="-1.1069">
        <ele>1461</ele>
        <time>2019-09-29T12:00:36+02:00</time>
      </trkpt>
      <trkpt lat="43.03331" lon="-1.10672">
        <ele>1460</ele>
        <time>2019-09-29T12:01:08+02:00</time>
      </trkpt>
      <trkpt lat="43.03348" lon="-1.10651">
        <ele>1456</ele>
        <time>2019-09-29T12:01:40+02:00</time>
      </trkpt>
      <trkpt lat="43.03367" lon="-1.10633">
        <ele>1453</ele>
        <time>2019-09-29T12:02:25+02:00</time>
      </trkpt>
      <trkpt lat="43.03386" lon="-1.10615">
        <ele>1449</ele>
        <time>2019-09-29T12:02:44+02:00</time>
      </trkpt>
      <trkpt lat="43.03404" lon="-1.10597">
        <ele>1444</ele>
        <time>2019-09-29T12:03:17+02:00</time>
      </trkpt>
      <trkpt lat="43.03422" lon="-1.10578">
        <ele>1439</ele>
        <time>2019-09-29T12:03:55+02:00</time>
      </trkpt>
      <trkpt lat="43.03434" lon="-1.10551">
        <ele>1435</ele>
        <time>2019-09-29T12:04:35+02:00</time>
      </trkpt>
      <trkpt lat="43.03445" lon="-1.10524">
        <ele>1431</ele>
        <time>2019-09-29T12:05:11+02:00</time>
      </trkpt>
      <trkpt lat="43.03453" lon="-1.10495">
        <ele>1428</ele>
        <time>2019-09-29T12:05:32+02:00</time>
      </trkpt>
      <trkpt lat="43.03462" lon="-1.10466">
        <ele>1425</ele>
        <time>2019-09-29T12:06:11+02:00</time>
      </trkpt>
      <trkpt lat="43.03473" lon="-1.10438">
        <ele>1424</ele>
        <time>2019-09-29T12:06:34+02:00</time>
      </trkpt>
      <trkpt lat="43.03484" lon="-1.10409">
        <ele>1422</ele>
        <time>2019-09-29T12:07:00+02:00</time>
      </trkpt>
      <trkpt lat="43.035" lon="-1.10386">
        <ele>1420</ele>
        <time>2019-09-29T12:07:18+02:00</time>
      </trkpt>
      <trkpt lat="43.03519" lon="-1.10368">
        <ele>1418</ele>
        <time>2019-09-29T12:07:44+02:00</time>
      </trkpt>
      <trkpt lat="43.03538" lon="-1.10351">
        <ele>1414</ele>
        <time>2019-09-29T12:08:07+02:00</time>
      </trkpt>
      <trkpt lat="43.03554" lon="-1.10328">
        <ele>1410</ele>
        <time>2019-09-29T12:08:27+02:00</time>
      </trkpt>
      <trkpt lat="43.03571" lon="-1.10305">
        <ele>1406</ele>
        <time>2019-09-29T12:08:45+02:00</time>
      </trkpt>
      <trkpt lat="43.03589" lon="-1.10283">
        <ele>1404</ele>
        <time>2019-09-29T12:09:03+02:00</time>
      </trkpt>
      <trkpt lat="43.03606" lon="-1.10263">
        <ele>1401</ele>
        <time>2019-09-29T12:09:21+02:00</time>
      </trkpt>
      <trkpt lat="43.03615" lon="-1.10234">
        <ele>1399</ele>
        <time>2019-09-29T12:09:49+02:00</time>
      </trkpt>
      <trkpt lat="43.03627" lon="-1.10209">
        <ele>1396</ele>
        <time>2019-09-29T12:10:07+02:00</time>
      </trkpt>
      <trkpt lat="43.03645" lon="-1.10187">
        <ele>1392</ele>
        <time>2019-09-29T12:10:24+02:00</time>
      </trkpt>
      <trkpt lat="43.03658" lon="-1.10161">
        <ele>1391</ele>
        <time>2019-09-29T12:10:57+02:00</time>
      </trkpt>
      <trkpt lat="43.03664" lon="-1.10131">
        <ele>1389</ele>
        <time>2019-09-29T12:11:47+02:00</time>
      </trkpt>
      <trkpt lat="43.0367" lon="-1.10101">
        <ele>1387</ele>
        <time>2019-09-29T12:12:04+02:00</time>
      </trkpt>
      <trkpt lat="43.03678" lon="-1.10071">
        <ele>1384</ele>
        <time>2019-09-29T12:12:21+02:00</time>
      </trkpt>
      <trkpt lat="43.03694" lon="-1.10047">
        <ele>1382</ele>
        <time>2019-09-29T12:12:38+02:00</time>
      </trkpt>
      <trkpt lat="43.03709" lon="-1.10023">
        <ele>1377</ele>
        <time>2019-09-29T12:13:03+02:00</time>
      </trkpt>
      <trkpt lat="43.0372" lon="-1.09996">
        <ele>1372</ele>
        <time>2019-09-29T12:14:10+02:00</time>
      </trkpt>
      <trkpt lat="43.03727" lon="-1.09966">
        <ele>1366</ele>
        <time>2019-09-29T12:14:43+02:00</time>
      </trkpt>
      <trkpt lat="43.03734" lon="-1.09937">
        <ele>1359</ele>
        <time>2019-09-29T12:15:09+02:00</time>
      </trkpt>
      <trkpt lat="43.03745" lon="-1.09909">
        <ele>1353</ele>
        <time>2019-09-29T12:15:31+02:00</time>
      </trkpt>
      <trkpt lat="43.03753" lon="-1.0988">
        <ele>1347</ele>
        <time>2019-09-29T12:16:00+02:00</time>
      </trkpt>
      <trkpt lat="43.03761" lon="-1.0985">
        <ele>1342</ele>
        <time>2019-09-29T12:16:22+02:00</time>
      </trkpt>
      <trkpt lat="43.03771" lon="-1.09822">
        <ele>1339</ele>
        <time>2019-09-29T12:16:46+02:00</time>
      </trkpt>
      <trkpt lat="43.03777" lon="-1.09792">
        <ele>1338</ele>
        <time>2019-09-29T12:17:09+02:00</time>
      </trkpt>
      <trkpt lat="43.03781" lon="-1.09761">
        <ele>1337</ele>
        <time>2019-09-29T12:17:29+02:00</time>
      </trkpt>
      <trkpt lat="43.03779" lon="-1.0973">
        <ele>1336</ele>
        <time>2019-09-29T12:17:50+02:00</time>
      </trkpt>
      <trkpt lat="43.03772" lon="-1.09699">
        <ele>1335</ele>
        <time>2019-09-29T12:18:10+02:00</time>
      </trkpt>
      <trkpt lat="43.03765" lon="-1.0967">
        <ele>1336</ele>
        <time>2019-09-29T12:18:37+02:00</time>
      </trkpt>
      <trkpt lat="43.03758" lon="-1.0964">
        <ele>1335</ele>
        <time>2019-09-29T12:18:56+02:00</time>
      </trkpt>
      <trkpt lat="43.03755" lon="-1.09608">
        <ele>1333</ele>
        <time>2019-09-29T12:19:22+02:00</time>
      </trkpt>
      <trkpt lat="43.03742" lon="-1.09581">
        <ele>1331</ele>
        <time>2019-09-29T12:19:42+02:00</time>
      </trkpt>
      <trkpt lat="43.03727" lon="-1.09557">
        <ele>1329</ele>
        <time>2019-09-29T12:20:01+02:00</time>
      </trkpt>
      <trkpt lat="43.03713" lon="-1.09532">
        <ele>1327</ele>
        <time>2019-09-29T12:20:29+02:00</time>
      </trkpt>
      <trkpt lat="43.03709" lon="-1.09501">
        <ele>1326</ele>
        <time>2019-09-29T12:20:50+02:00</time>
      </trkpt>
      <trkpt lat="43.03702" lon="-1.09471">
        <ele>1324</ele>
        <time>2019-09-29T12:21:07+02:00</time>
      </trkpt>
      <trkpt lat="43.037" lon="-1.0944">
        <ele>1323</ele>
        <time>2019-09-29T12:21:24+02:00</time>
      </trkpt>
      <trkpt lat="43.03707" lon="-1.0941">
        <ele>1323</ele>
        <time>2019-09-29T12:21:44+02:00</time>
      </trkpt>
      <trkpt lat="43.03699" lon="-1.09381">
        <ele>1322</ele>
        <time>2019-09-29T12:22:05+02:00</time>
      </trkpt>
      <trkpt lat="43.03686" lon="-1.09355">
        <ele>1320</ele>
        <time>2019-09-29T12:23:00+02:00</time>
      </trkpt>
      <trkpt lat="43.03676" lon="-1.09327">
        <ele>1318</ele>
        <time>2019-09-29T12:23:24+02:00</time>
      </trkpt>
      <trkpt lat="43.03674" lon="-1.09296">
        <ele>1318</ele>
        <time>2019-09-29T12:23:43+02:00</time>
      </trkpt>
      <trkpt lat="43.03667" lon="-1.09265">
        <ele>1318</ele>
        <time>2019-09-29T12:24:12+02:00</time>
      </trkpt>
      <trkpt lat="43.0366" lon="-1.09236">
        <ele>1314</ele>
        <time>2019-09-29T12:24:33+02:00</time>
      </trkpt>
      <trkpt lat="43.03653" lon="-1.09206">
        <ele>1309</ele>
        <time>2019-09-29T12:24:52+02:00</time>
      </trkpt>
      <trkpt lat="43.03634" lon="-1.09188">
        <ele>1313</ele>
        <time>2019-09-29T12:25:17+02:00</time>
      </trkpt>
      <trkpt lat="43.03615" lon="-1.0917">
        <ele>1316</ele>
        <time>2019-09-29T12:25:51+02:00</time>
      </trkpt>
      <trkpt lat="43.03603" lon="-1.09142">
        <ele>1315</ele>
        <time>2019-09-29T12:26:14+02:00</time>
      </trkpt>
      <trkpt lat="43.03594" lon="-1.09113">
        <ele>1314</ele>
        <time>2019-09-29T12:26:37+02:00</time>
      </trkpt>
      <trkpt lat="43.03581" lon="-1.09087">
        <ele>1315</ele>
        <time>2019-09-29T12:27:09+02:00</time>
      </trkpt>
      <trkpt lat="43.03568" lon="-1.09063">
        <ele>1317</ele>
        <time>2019-09-29T12:27:38+02:00</time>
      </trkpt>
      <trkpt lat="43.03555" lon="-1.09036">
        <ele>1320</ele>
        <time>2019-09-29T12:28:01+02:00</time>
      </trkpt>
      <trkpt lat="43.03546" lon="-1.09008">
        <ele>1321</ele>
        <time>2019-09-29T12:28:40+02:00</time>
      </trkpt>
      <trkpt lat="43.03547" lon="-1.08977">
        <ele>1318</ele>
        <time>2019-09-29T12:29:01+02:00</time>
      </trkpt>
      <trkpt lat="43.03533" lon="-1.08952">
        <ele>1326</ele>
        <time>2019-09-29T12:29:31+02:00</time>
      </trkpt>
      <trkpt lat="43.0352" lon="-1.08925">
        <ele>1330</ele>
        <time>2019-09-29T12:29:56+02:00</time>
      </trkpt>
      <trkpt lat="43.03499" lon="-1.08913">
        <ele>1337</ele>
        <time>2019-09-29T12:30:24+02:00</time>
      </trkpt>
      <trkpt lat="43.0351" lon="-1.08886">
        <ele>1329</ele>
        <time>2019-09-29T12:31:18+02:00</time>
      </trkpt>
      <trkpt lat="43.03531" lon="-1.08897">
        <ele>1321</ele>
        <time>2019-09-29T12:31:34+02:00</time>
      </trkpt>
      <trkpt lat="43.03549" lon="-1.08919">
        <ele>1312</ele>
        <time>2019-09-29T12:31:53+02:00</time>
      </trkpt>
      <trkpt lat="43.03558" lon="-1.08948">
        <ele>1309</ele>
        <time>2019-09-29T12:32:11+02:00</time>
      </trkpt>
      <trkpt lat="43.03572" lon="-1.08973">
        <ele>1302</ele>
        <time>2019-09-29T12:32:55+02:00</time>
      </trkpt>
      <trkpt lat="43.0358" lon="-1.09002">
        <ele>1301</ele>
        <time>2019-09-29T12:33:14+02:00</time>
      </trkpt>
      <trkpt lat="43.03593" lon="-1.09027">
        <ele>1297</ele>
        <time>2019-09-29T12:33:32+02:00</time>
      </trkpt>
      <trkpt lat="43.03606" lon="-1.09053">
        <ele>1295</ele>
        <time>2019-09-29T12:33:58+02:00</time>
      </trkpt>
      <trkpt lat="43.03622" lon="-1.09076">
        <ele>1293</ele>
        <time>2019-09-29T12:34:20+02:00</time>
      </trkpt>
      <trkpt lat="43.03637" lon="-1.09099">
        <ele>1290</ele>
        <time>2019-09-29T12:34:41+02:00</time>
      </trkpt>
      <trkpt lat="43.03654" lon="-1.0912">
        <ele>1285</ele>
        <time>2019-09-29T12:35:03+02:00</time>
      </trkpt>
      <trkpt lat="43.0367" lon="-1.09145">
        <ele>1283</ele>
        <time>2019-09-29T12:35:24+02:00</time>
      </trkpt>
      <trkpt lat="43.03685" lon="-1.0917">
        <ele>1281</ele>
        <time>2019-09-29T12:35:44+02:00</time>
      </trkpt>
      <trkpt lat="43.03705" lon="-1.09188">
        <ele>1278</ele>
        <time>2019-09-29T12:36:07+02:00</time>
      </trkpt>
      <trkpt lat="43.03722" lon="-1.09208">
        <ele>1277</ele>
        <time>2019-09-29T12:36:27+02:00</time>
      </trkpt>
      <trkpt lat="43.03743" lon="-1.09222">
        <ele>1275</ele>
        <time>2019-09-29T12:36:49+02:00</time>
      </trkpt>
      <trkpt lat="43.03764" lon="-1.09237">
        <ele>1276</ele>
        <time>2019-09-29T12:37:11+02:00</time>
      </trkpt>
      <trkpt lat="43.03787" lon="-1.09238">
        <ele>1273</ele>
        <time>2019-09-29T12:37:43+02:00</time>
      </trkpt>
      <trkpt lat="43.0381" lon="-1.09247">
        <ele>1269</ele>
        <time>2019-09-29T12:38:02+02:00</time>
      </trkpt>
      <trkpt lat="43.03832" lon="-1.09249">
        <ele>1266</ele>
        <time>2019-09-29T12:38:24+02:00</time>
      </trkpt>
      <trkpt lat="43.03855" lon="-1.09254">
        <ele>1258</ele>
        <time>2019-09-29T12:38:42+02:00</time>
      </trkpt>
      <trkpt lat="43.03876" lon="-1.09267">
        <ele>1252</ele>
        <time>2019-09-29T12:39:02+02:00</time>
      </trkpt>
      <trkpt lat="43.0389" lon="-1.09292">
        <ele>1251</ele>
        <time>2019-09-29T12:39:24+02:00</time>
      </trkpt>
      <trkpt lat="43.03901" lon="-1.09319">
        <ele>1253</ele>
        <time>2019-09-29T12:39:45+02:00</time>
      </trkpt>
      <trkpt lat="43.03908" lon="-1.09349">
        <ele>1257</ele>
        <time>2019-09-29T12:40:06+02:00</time>
      </trkpt>
      <trkpt lat="43.03914" lon="-1.0938">
        <ele>1260</ele>
        <time>2019-09-29T12:40:25+02:00</time>
      </trkpt>
      <trkpt lat="43.03919" lon="-1.0941">
        <ele>1258</ele>
        <time>2019-09-29T12:40:46+02:00</time>
      </trkpt>
      <trkpt lat="43.03935" lon="-1.09432">
        <ele>1254</ele>
        <time>2019-09-29T12:41:06+02:00</time>
      </trkpt>
      <trkpt lat="43.0395" lon="-1.09456">
        <ele>1252</ele>
        <time>2019-09-29T12:41:24+02:00</time>
      </trkpt>
      <trkpt lat="43.03961" lon="-1.09486">
        <ele>1251</ele>
        <time>2019-09-29T12:41:44+02:00</time>
      </trkpt>
      <trkpt lat="43.03969" lon="-1.09516">
        <ele>1249</ele>
        <time>2019-09-29T12:42:03+02:00</time>
      </trkpt>
      <trkpt lat="43.03985" lon="-1.09538">
        <ele>1244</ele>
        <time>2019-09-29T12:42:26+02:00</time>
      </trkpt>
      <trkpt lat="43.04002" lon="-1.0956">
        <ele>1238</ele>
        <time>2019-09-29T12:42:48+02:00</time>
      </trkpt>
      <trkpt lat="43.04021" lon="-1.09577">
        <ele>1236</ele>
        <time>2019-09-29T12:43:10+02:00</time>
      </trkpt>
      <trkpt lat="43.04043" lon="-1.09582">
        <ele>1233</ele>
        <time>2019-09-29T12:43:36+02:00</time>
      </trkpt>
      <trkpt lat="43.04064" lon="-1.09594">
        <ele>1237</ele>
        <time>2019-09-29T12:43:59+02:00</time>
      </trkpt>
      <trkpt lat="43.04087" lon="-1.09602">
        <ele>1240</ele>
        <time>2019-09-29T12:44:32+02:00</time>
      </trkpt>
      <trkpt lat="43.0411" lon="-1.09608">
        <ele>1239</ele>
        <time>2019-09-29T12:44:51+02:00</time>
      </trkpt>
      <trkpt lat="43.04132" lon="-1.09613">
        <ele>1240</ele>
        <time>2019-09-29T12:45:30+02:00</time>
      </trkpt>
      <trkpt lat="43.04155" lon="-1.09611">
        <ele>1242</ele>
        <time>2019-09-29T12:45:54+02:00</time>
      </trkpt>
      <trkpt lat="43.04179" lon="-1.09609">
        <ele>1246</ele>
        <time>2019-09-29T12:46:14+02:00</time>
      </trkpt>
      <trkpt lat="43.042" lon="-1.09597">
        <ele>1249</ele>
        <time>2019-09-29T12:46:35+02:00</time>
      </trkpt>
      <trkpt lat="43.04214" lon="-1.09572">
        <ele>1249</ele>
        <time>2019-09-29T12:46:58+02:00</time>
      </trkpt>
      <trkpt lat="43.04213" lon="-1.0954">
        <ele>1247</ele>
        <time>2019-09-29T12:47:20+02:00</time>
      </trkpt>
      <trkpt lat="43.04208" lon="-1.0951">
        <ele>1242</ele>
        <time>2019-09-29T12:47:44+02:00</time>
      </trkpt>
      <trkpt lat="43.04228" lon="-1.09494">
        <ele>1239</ele>
        <time>2019-09-29T12:48:09+02:00</time>
      </trkpt>
      <trkpt lat="43.0425" lon="-1.09487">
        <ele>1237</ele>
        <time>2019-09-29T12:48:28+02:00</time>
      </trkpt>
      <trkpt lat="43.04271" lon="-1.09473">
        <ele>1235</ele>
        <time>2019-09-29T12:48:59+02:00</time>
      </trkpt>
      <trkpt lat="43.04291" lon="-1.09457">
        <ele>1234</ele>
        <time>2019-09-29T12:49:20+02:00</time>
      </trkpt>
      <trkpt lat="43.04311" lon="-1.0944">
        <ele>1233</ele>
        <time>2019-09-29T12:49:40+02:00</time>
      </trkpt>
      <trkpt lat="43.04334" lon="-1.09436">
        <ele>1235</ele>
        <time>2019-09-29T12:49:58+02:00</time>
      </trkpt>
      <trkpt lat="43.04357" lon="-1.09442">
        <ele>1235</ele>
        <time>2019-09-29T12:50:20+02:00</time>
      </trkpt>
      <trkpt lat="43.04379" lon="-1.09431">
        <ele>1232</ele>
        <time>2019-09-29T12:50:42+02:00</time>
      </trkpt>
      <trkpt lat="43.04402" lon="-1.09431">
        <ele>1231</ele>
        <time>2019-09-29T12:51:01+02:00</time>
      </trkpt>
      <trkpt lat="43.04415" lon="-1.09459">
        <ele>1232</ele>
        <time>2019-09-29T12:51:20+02:00</time>
      </trkpt>
      <trkpt lat="43.04428" lon="-1.09483">
        <ele>1230</ele>
        <time>2019-09-29T12:51:40+02:00</time>
      </trkpt>
      <trkpt lat="43.0443" lon="-1.09515">
        <ele>1229</ele>
        <time>2019-09-29T12:51:59+02:00</time>
      </trkpt>
      <trkpt lat="43.04418" lon="-1.09543">
        <ele>1230</ele>
        <time>2019-09-29T12:52:17+02:00</time>
      </trkpt>
      <trkpt lat="43.04412" lon="-1.09573">
        <ele>1228</ele>
        <time>2019-09-29T12:52:48+02:00</time>
      </trkpt>
      <trkpt lat="43.04403" lon="-1.09602">
        <ele>1226</ele>
        <time>2019-09-29T12:53:14+02:00</time>
      </trkpt>
      <trkpt lat="43.04394" lon="-1.09632">
        <ele>1222</ele>
        <time>2019-09-29T12:53:35+02:00</time>
      </trkpt>
      <trkpt lat="43.04384" lon="-1.0966">
        <ele>1218</ele>
        <time>2019-09-29T12:53:53+02:00</time>
      </trkpt>
      <trkpt lat="43.04368" lon="-1.09686">
        <ele>1219</ele>
        <time>2019-09-29T12:54:19+02:00</time>
      </trkpt>
      <trkpt lat="43.04389" lon="-1.09698">
        <ele>1211</ele>
        <time>2019-09-29T12:54:57+02:00</time>
      </trkpt>
      <trkpt lat="43.04411" lon="-1.09685">
        <ele>1206</ele>
        <time>2019-09-29T12:55:20+02:00</time>
      </trkpt>
      <trkpt lat="43.04421" lon="-1.09713">
        <ele>1204</ele>
        <time>2019-09-29T12:56:01+02:00</time>
      </trkpt>
      <trkpt lat="43.0441" lon="-1.0974">
        <ele>1205</ele>
        <time>2019-09-29T12:56:22+02:00</time>
      </trkpt>
      <trkpt lat="43.04398" lon="-1.09767">
        <ele>1204</ele>
        <time>2019-09-29T12:56:41+02:00</time>
      </trkpt>
      <trkpt lat="43.04382" lon="-1.0979">
        <ele>1201</ele>
        <time>2019-09-29T12:56:58+02:00</time>
      </trkpt>
      <trkpt lat="43.04403" lon="-1.09805">
        <ele>1189</ele>
        <time>2019-09-29T12:57:20+02:00</time>
      </trkpt>
      <trkpt lat="43.04422" lon="-1.09823">
        <ele>1186</ele>
        <time>2019-09-29T12:57:35+02:00</time>
      </trkpt>
      <trkpt lat="43.04445" lon="-1.0983">
        <ele>1181</ele>
        <time>2019-09-29T12:57:54+02:00</time>
      </trkpt>
      <trkpt lat="43.04467" lon="-1.09837">
        <ele>1180</ele>
        <time>2019-09-29T12:58:13+02:00</time>
      </trkpt>
      <trkpt lat="43.04483" lon="-1.09861">
        <ele>1182</ele>
        <time>2019-09-29T12:58:32+02:00</time>
      </trkpt>
      <trkpt lat="43.04501" lon="-1.0984">
        <ele>1174</ele>
        <time>2019-09-29T12:59:14+02:00</time>
      </trkpt>
      <trkpt lat="43.04519" lon="-1.0982">
        <ele>1168</ele>
        <time>2019-09-29T12:59:40+02:00</time>
      </trkpt>
      <trkpt lat="43.04536" lon="-1.09799">
        <ele>1162</ele>
        <time>2019-09-29T13:00:03+02:00</time>
      </trkpt>
      <trkpt lat="43.04546" lon="-1.0977">
        <ele>1156</ele>
        <time>2019-09-29T13:00:34+02:00</time>
      </trkpt>
      <trkpt lat="43.04568" lon="-1.09778">
        <ele>1155</ele>
        <time>2019-09-29T13:00:53+02:00</time>
      </trkpt>
      <trkpt lat="43.04591" lon="-1.09781">
        <ele>1151</ele>
        <time>2019-09-29T13:01:41+02:00</time>
      </trkpt>
      <trkpt lat="43.04608" lon="-1.0976">
        <ele>1144</ele>
        <time>2019-09-29T13:03:48+02:00</time>
      </trkpt>
      <trkpt lat="43.04629" lon="-1.09748">
        <ele>1140</ele>
        <time>2019-09-29T13:04:10+02:00</time>
      </trkpt>
      <trkpt lat="43.04643" lon="-1.09722">
        <ele>1140</ele>
        <time>2019-09-29T13:04:30+02:00</time>
      </trkpt>
      <trkpt lat="43.04663" lon="-1.09707">
        <ele>1136</ele>
        <time>2019-09-29T13:04:56+02:00</time>
      </trkpt>
      <trkpt lat="43.04678" lon="-1.09683">
        <ele>1133</ele>
        <time>2019-09-29T13:05:18+02:00</time>
      </trkpt>
      <trkpt lat="43.04696" lon="-1.09664">
        <ele>1131</ele>
        <time>2019-09-29T13:05:49+02:00</time>
      </trkpt>
      <trkpt lat="43.04685" lon="-1.09691">
        <ele>1132</ele>
        <time>2019-09-29T13:06:31+02:00</time>
      </trkpt>
      <trkpt lat="43.0469" lon="-1.09723">
        <ele>1134</ele>
        <time>2019-09-29T13:06:51+02:00</time>
      </trkpt>
      <trkpt lat="43.04713" lon="-1.09728">
        <ele>1133</ele>
        <time>2019-09-29T13:07:12+02:00</time>
      </trkpt>
      <trkpt lat="43.04735" lon="-1.09726">
        <ele>1133</ele>
        <time>2019-09-29T13:07:30+02:00</time>
      </trkpt>
      <trkpt lat="43.04756" lon="-1.09738">
        <ele>1134</ele>
        <time>2019-09-29T13:07:58+02:00</time>
      </trkpt>
      <trkpt lat="43.0477" lon="-1.09763">
        <ele>1136</ele>
        <time>2019-09-29T13:08:27+02:00</time>
      </trkpt>
      <trkpt lat="43.0478" lon="-1.09791">
        <ele>1137</ele>
        <time>2019-09-29T13:08:47+02:00</time>
      </trkpt>
      <trkpt lat="43.04792" lon="-1.09819">
        <ele>1138</ele>
        <time>2019-09-29T13:09:07+02:00</time>
      </trkpt>
      <trkpt lat="43.04804" lon="-1.09846">
        <ele>1137</ele>
        <time>2019-09-29T13:09:25+02:00</time>
      </trkpt>
      <trkpt lat="43.04818" lon="-1.09871">
        <ele>1139</ele>
        <time>2019-09-29T13:09:46+02:00</time>
      </trkpt>
      <trkpt lat="43.04841" lon="-1.09876">
        <ele>1142</ele>
        <time>2019-09-29T13:10:08+02:00</time>
      </trkpt>
    </trkseg>
  </trk>
</gpx>